createdAt,value
2023-01-13T00:00:06.927Z,100115.16
2023-01-13T00:00:43.219Z,100120.91
2023-01-13T00:01:17.499Z,100115.25
2023-01-13T00:01:49.055Z,100122.09
2023-01-13T00:02:20.672Z,100125.97
2023-01-13T00:02:52.219Z,100138.66
2023-01-13T00:03:23.775Z,100136.00
2023-01-13T00:03:56.265Z,100130.50
2023-01-13T00:04:28.990Z,100120.41
2023-01-13T00:05:00.595Z,100123.88
2023-01-13T00:05:32.271Z,100124.31
2023-01-13T00:06:04.356Z,100130.81
2023-01-13T00:06:37.044Z,100114.88
2023-01-13T00:07:08.640Z,100115.31
2023-01-13T00:07:40.331Z,100123.44
2023-01-13T00:08:14.182Z,100114.06
2023-01-13T00:08:49.009Z,100110.47
2023-01-13T00:09:20.717Z,100116.22
2023-01-13T00:09:52.247Z,100120.75
2023-01-13T00:10:23.836Z,100132.41
2023-01-13T00:10:55.509Z,100119.72
2023-01-13T00:11:27.767Z,100127.88
2023-01-13T00:11:59.500Z,100117.06
2023-01-13T00:12:31.071Z,100128.13
2023-01-13T00:13:04.145Z,100127.53
2023-01-13T00:13:38.079Z,100125.31
2023-01-13T00:14:09.677Z,100131.88
2023-01-13T00:14:41.490Z,100118.41
2023-01-13T00:15:13.451Z,100120.47
2023-01-13T00:15:45.080Z,100129.81
2023-01-13T00:16:18.327Z,100123.25
2023-01-13T00:16:49.941Z,100122.22
2023-01-13T00:17:22.726Z,100121.88
2023-01-13T00:17:54.295Z,100130.50
2023-01-13T00:18:26.322Z,100136.59
2023-01-13T00:19:03.114Z,100129.59
2023-01-13T00:19:34.920Z,100135.78
2023-01-13T00:20:07.572Z,100130.75
2023-01-13T00:20:39.132Z,100137.63
2023-01-13T00:21:16.373Z,100135.03
2023-01-13T00:21:47.935Z,100130.31
2023-01-13T00:22:19.505Z,100132.97
2023-01-13T00:22:51.152Z,100139.28
2023-01-13T00:23:24.841Z,100140.53
2023-01-13T00:23:56.485Z,100134.66
2023-01-13T00:24:28.119Z,100132.03
2023-01-13T00:25:01.520Z,100127.16
2023-01-13T00:25:33.095Z,100123.44
2023-01-13T00:26:07.217Z,100119.38
2023-01-13T00:26:38.808Z,100127.94
2023-01-13T00:27:10.382Z,100132.22
2023-01-13T00:27:42.458Z,100139.38
2023-01-13T00:28:14.262Z,100130.78
2023-01-13T00:28:46.086Z,100133.66
2023-01-13T00:29:17.670Z,100137.75
2023-01-13T00:29:49.235Z,100129.00
2023-01-13T00:30:20.803Z,100133.66
2023-01-13T00:30:52.487Z,100132.91
2023-01-13T00:31:24.144Z,100140.28
2023-01-13T00:31:55.850Z,100134.53
2023-01-13T00:32:27.893Z,100129.66
2023-01-13T00:32:59.700Z,100135.56
2023-01-13T00:33:31.294Z,100126.63
2023-01-13T00:34:02.833Z,100135.41
2023-01-13T00:34:34.640Z,100132.75
2023-01-13T00:35:06.517Z,100140.28
2023-01-13T00:35:38.101Z,100153.69
2023-01-13T00:36:13.051Z,100132.31
2023-01-13T00:36:45.150Z,100138.66
2023-01-13T00:37:16.851Z,100143.16
2023-01-13T00:37:48.468Z,100147.63
2023-01-13T00:38:20.016Z,100147.56
2023-01-13T00:38:51.693Z,100150.00
2023-01-13T00:39:23.308Z,100141.69
2023-01-13T00:39:54.990Z,100143.09
2023-01-13T00:40:27.097Z,100137.03
2023-01-13T00:41:03.838Z,100146.75
2023-01-13T00:41:55.638Z,100143.97
2023-01-13T00:42:45.847Z,100137.91
2023-01-13T00:43:23.374Z,100142.19
2023-01-13T00:43:54.959Z,100148.72
2023-01-13T00:44:26.564Z,100149.38
2023-01-13T00:44:58.365Z,100140.81
2023-01-13T00:45:30.005Z,100135.09
2023-01-13T00:46:01.921Z,100139.19
2023-01-13T00:46:33.671Z,100142.84
2023-01-13T00:47:05.301Z,100143.88
2023-01-13T00:47:37.105Z,100135.19
2023-01-13T00:48:08.706Z,100139.25
2023-01-13T00:48:40.375Z,100132.09
2023-01-13T00:49:12.199Z,100130.91
2023-01-13T00:49:44.848Z,100138.84
2023-01-13T00:50:16.660Z,100140.25
2023-01-13T00:50:58.197Z,100133.13
2023-01-13T00:51:29.965Z,100134.53
2023-01-13T00:52:01.584Z,100136.38
2023-01-13T00:52:33.570Z,100131.50
2023-01-13T00:53:05.155Z,100129.28
2023-01-13T00:53:39.075Z,100125.44
2023-01-13T00:54:10.717Z,100119.31
2023-01-13T00:54:42.347Z,100131.59
2023-01-13T00:55:14.100Z,100133.66
2023-01-13T00:55:45.699Z,100130.59
2023-01-13T00:56:22.099Z,100123.91
2023-01-13T00:57:01.991Z,100122.28
2023-01-13T00:57:34.255Z,100131.69
2023-01-13T00:58:05.824Z,100128.00
2023-01-13T00:58:37.387Z,100129.03
2023-01-13T00:59:12.679Z,100127.56
2023-01-13T00:59:44.352Z,100133.31
2023-01-13T01:00:16.211Z,100121.47
2023-01-13T01:00:47.823Z,100124.31
2023-01-13T01:01:21.686Z,100118.00
2023-01-13T01:01:53.435Z,100121.09
2023-01-13T01:02:25.184Z,100124.16
2023-01-13T01:02:56.832Z,100122.16
2023-01-13T01:03:29.291Z,100120.31
2023-01-13T01:04:00.961Z,100125.25
2023-01-13T01:04:32.882Z,100113.00
2023-01-13T01:05:04.720Z,100126.47
2023-01-13T01:05:36.385Z,100117.94
2023-01-13T01:06:16.421Z,100120.75
2023-01-13T01:06:48.177Z,100126.47
2023-01-13T01:07:19.765Z,100119.13
2023-01-13T01:07:51.372Z,100124.03
2023-01-13T01:08:23.206Z,100129.34
2023-01-13T01:08:55.784Z,100127.25
2023-01-13T01:09:33.524Z,100118.69
2023-01-13T01:10:05.548Z,100129.72
2023-01-13T01:10:37.114Z,100126.69
2023-01-13T01:11:11.435Z,100126.06
2023-01-13T01:11:43.692Z,100131.19
2023-01-13T01:12:15.289Z,100127.06
2023-01-13T01:12:46.884Z,100128.53
2023-01-13T01:13:18.640Z,100132.22
2023-01-13T01:13:52.518Z,100120.38
2023-01-13T01:14:24.142Z,100122.81
2023-01-13T01:14:55.755Z,100121.19
2023-01-13T01:15:27.399Z,100117.03
2023-01-13T01:15:59.484Z,100122.09
2023-01-13T01:16:32.989Z,100117.25
2023-01-13T01:17:04.604Z,100120.66
2023-01-13T01:17:37.069Z,100128.00
2023-01-13T01:18:08.731Z,100118.59
2023-01-13T01:18:43.653Z,100113.56
2023-01-13T01:19:15.237Z,100120.28
2023-01-13T01:19:46.796Z,100123.94
2023-01-13T01:20:18.575Z,100124.59
2023-01-13T01:20:50.189Z,100125.84
2023-01-13T01:21:23.500Z,100122.81
2023-01-13T01:21:55.171Z,100133.34
2023-01-13T01:22:26.729Z,100128.88
2023-01-13T01:23:01.033Z,100121.94
2023-01-13T01:23:33.643Z,100126.44
2023-01-13T01:24:05.406Z,100127.88
2023-01-13T01:24:37.169Z,100130.53
2023-01-13T01:25:09.155Z,100132.38
2023-01-13T01:25:40.743Z,100130.59
2023-01-13T01:26:26.068Z,100135.84
2023-01-13T01:26:57.634Z,100141.31
2023-01-13T01:27:29.528Z,100141.94
2023-01-13T01:28:01.188Z,100135.25
2023-01-13T01:28:34.053Z,100135.84
2023-01-13T01:29:05.671Z,100154.59
2023-01-13T01:29:37.360Z,100136.44
2023-01-13T01:30:09.330Z,100136.22
2023-01-13T01:30:40.895Z,100143.56
2023-01-13T01:31:14.934Z,100147.25
2023-01-13T01:31:46.749Z,100148.44
2023-01-13T01:32:18.445Z,100139.47
2023-01-13T01:32:52.717Z,100150.50
2023-01-13T01:33:24.496Z,100149.03
2023-01-13T01:33:56.136Z,100153.75
2023-01-13T01:34:27.695Z,100152.94
2023-01-13T01:34:59.222Z,100147.41
2023-01-13T01:35:31.224Z,100151.69
2023-01-13T01:36:03.633Z,100150.66
2023-01-13T01:36:36.621Z,100157.53
2023-01-13T01:37:08.306Z,100148.19
2023-01-13T01:37:39.931Z,100158.78
2023-01-13T01:38:11.567Z,100161.03
2023-01-13T01:38:43.775Z,100160.25
2023-01-13T01:39:15.392Z,100165.09
2023-01-13T01:39:46.960Z,100163.47
2023-01-13T01:40:18.719Z,100161.88
2023-01-13T01:40:50.718Z,100161.00
2023-01-13T01:41:24.383Z,100157.75
2023-01-13T01:42:14.757Z,100171.22
2023-01-13T01:43:05.149Z,100160.78
2023-01-13T01:44:02.804Z,100171.19
2023-01-13T01:44:43.451Z,100170.78
2023-01-13T01:45:23.116Z,100162.63
2023-01-13T01:45:54.917Z,100160.56
2023-01-13T01:46:28.085Z,100162.63
2023-01-13T01:46:59.862Z,100164.25
2023-01-13T01:47:32.301Z,100165.88
2023-01-13T01:48:04.950Z,100158.94
2023-01-13T01:48:39.909Z,100163.41
2023-01-13T01:49:32.983Z,100163.84
2023-01-13T01:50:05.215Z,100163.84
2023-01-13T01:50:37.119Z,100160.16
2023-01-13T01:51:11.929Z,100160.16
2023-01-13T01:51:50.280Z,100156.50
2023-01-13T01:52:32.109Z,100164.25
2023-01-13T01:53:10.165Z,100154.47
2023-01-13T01:53:41.857Z,100160.38
2023-01-13T01:54:17.924Z,100163.84
2023-01-13T01:55:06.247Z,100164.66
2023-01-13T01:55:38.581Z,100157.31
2023-01-13T01:56:10.749Z,100157.75
2023-01-13T01:56:43.874Z,100154.88
2023-01-13T01:57:20.256Z,100155.28
2023-01-13T01:57:54.721Z,100153.25
2023-01-13T01:58:34.610Z,100155.47
2023-01-13T01:59:06.278Z,100145.69
2023-01-13T01:59:38.512Z,100141.41
2023-01-13T02:00:11.918Z,100152.63
2023-01-13T02:00:43.641Z,100146.72
2023-01-13T02:01:16.269Z,100154.69
2023-01-13T02:01:48.623Z,100148.31
2023-01-13T02:02:20.343Z,100149.78
2023-01-13T02:02:52.235Z,100146.31
2023-01-13T02:03:24.219Z,100132.22
2023-01-13T02:04:01.114Z,100134.06
2023-01-13T02:04:36.564Z,100137.16
2023-01-13T02:05:08.533Z,100140.00
2023-01-13T02:05:40.217Z,100139.78
2023-01-13T02:06:12.695Z,100141.03
2023-01-13T02:06:46.188Z,100143.75
2023-01-13T02:07:24.174Z,100133.56
2023-01-13T02:07:58.009Z,100145.03
2023-01-13T02:08:29.716Z,100137.06
2023-01-13T02:09:01.517Z,100144.00
2023-01-13T02:09:33.539Z,100136.22
2023-01-13T02:10:09.548Z,100139.50
2023-01-13T02:10:42.571Z,100136.25
2023-01-13T02:11:47.819Z,100139.56
2023-01-13T02:12:34.621Z,100141.56
2023-01-13T02:13:09.009Z,100145.84
2023-01-13T02:13:40.704Z,100152.59
2023-01-13T02:14:12.430Z,100147.09
2023-01-13T02:14:44.382Z,100146.88
2023-01-13T02:15:20.552Z,100145.25
2023-01-13T02:15:57.050Z,100141.56
2023-01-13T02:16:28.952Z,100133.03
2023-01-13T02:17:16.087Z,100144.44
2023-01-13T02:17:59.509Z,100145.44
2023-01-13T02:19:25.970Z,100142.59
2023-01-13T02:20:29.333Z,100155.25
2023-01-13T02:21:28.616Z,100144.53
2023-01-13T02:22:26.162Z,100143.72
2023-01-13T02:23:43.975Z,100138.41
2023-01-13T02:24:54.209Z,100144.13
2023-01-13T02:25:59.318Z,100138.84
2023-01-13T02:27:08.501Z,100137.63
2023-01-13T02:28:10.858Z,100141.31
2023-01-13T02:29:31.513Z,100141.50
2023-01-13T02:30:42.973Z,100140.91
2023-01-13T02:31:33.821Z,100145.38
2023-01-13T02:32:20.401Z,100144.19
2023-01-13T02:33:25.277Z,100147.81
2023-01-13T02:34:14.178Z,100148.66
2023-01-13T02:35:04.272Z,100144.97
2023-01-13T02:35:44.875Z,100150.88
2023-01-13T02:36:31.239Z,100136.84
2023-01-13T02:37:07.657Z,100137.84
2023-01-13T02:37:42.650Z,100139.69
2023-01-13T02:38:15.555Z,100138.47
2023-01-13T02:38:51.999Z,100138.88
2023-01-13T02:39:33.616Z,100140.94
2023-01-13T02:40:12.828Z,100140.50
2023-01-13T02:40:59.389Z,100142.13
2023-01-13T02:41:49.545Z,100138.06
2023-01-13T02:42:47.093Z,100147.63
2023-01-13T02:43:41.854Z,100133.16
2023-01-13T02:44:16.997Z,100134.78
2023-01-13T02:44:52.710Z,100141.09
2023-01-13T02:45:29.618Z,100139.56
2023-01-13T02:46:31.509Z,100136.06
2023-01-13T02:47:03.058Z,100143.16
2023-01-13T02:47:37.717Z,100142.75
2023-01-13T02:48:10.199Z,100136.88
2023-01-13T02:48:44.947Z,100136.06
2023-01-13T02:49:38.223Z,100135.47
2023-01-13T02:50:17.457Z,100139.94
2023-01-13T02:50:54.742Z,100136.47
2023-01-13T02:51:27.714Z,100137.28
2023-01-13T02:52:06.554Z,100135.25
2023-01-13T02:52:41.943Z,100135.47
2023-01-13T02:53:19.876Z,100128.31
2023-01-13T02:53:57.282Z,100126.66
2023-01-13T02:54:29.697Z,100132.38
2023-01-13T02:55:09.124Z,100131.19
2023-01-13T02:55:46.367Z,100135.25
2023-01-13T02:56:18.206Z,100129.75
2023-01-13T02:56:51.242Z,100123.00
2023-01-13T02:57:24.208Z,100120.13
2023-01-13T02:57:59.460Z,100121.75
2023-01-13T02:58:32.710Z,100124.63
2023-01-13T02:59:04.436Z,100129.69
2023-01-13T02:59:36.881Z,100119.31
2023-01-13T03:00:09.509Z,100124.63
2023-01-13T03:00:41.805Z,100117.28
2023-01-13T03:01:13.543Z,100124.41
2023-01-13T03:01:45.801Z,100125.44
2023-01-13T03:02:20.370Z,100124.81
2023-01-13T03:02:52.528Z,100114.41
2023-01-13T03:03:24.949Z,100118.50
2023-01-13T03:03:56.500Z,100121.75
2023-01-13T03:04:48.849Z,100116.66
2023-01-13T03:05:20.609Z,100126.25
2023-01-13T03:05:55.044Z,100118.53
2023-01-13T03:06:29.905Z,100122.22
2023-01-13T03:07:12.930Z,100129.13
2023-01-13T03:08:00.057Z,100130.75
2023-01-13T03:08:43.563Z,100120.34
2023-01-13T03:09:33.497Z,100122.56
2023-01-13T03:10:38.105Z,100123.81
2023-01-13T03:11:12.430Z,100113.44
2023-01-13T03:12:04.267Z,100118.91
2023-01-13T03:12:49.185Z,100112.41
2023-01-13T03:13:35.351Z,100111.97
2023-01-13T03:14:07.850Z,100101.00
2023-01-13T03:14:48.689Z,100102.19
2023-01-13T03:15:37.153Z,100093.66
2023-01-13T03:16:20.912Z,100101.00
2023-01-13T03:17:20.226Z,100100.63
2023-01-13T03:18:14.338Z,100095.69
2023-01-13T03:18:52.216Z,100104.88
2023-01-13T03:19:43.843Z,100103.44
2023-01-13T03:20:26.545Z,100097.31
2023-01-13T03:21:07.523Z,100095.06
2023-01-13T03:22:19.256Z,100094.47
2023-01-13T03:22:58.021Z,100083.44
2023-01-13T03:23:50.197Z,100097.91
2023-01-13T03:24:37.558Z,100094.66
2023-01-13T03:25:12.913Z,100091.38
2023-01-13T03:26:00.795Z,100103.00
2023-01-13T03:26:39.989Z,100092.03
2023-01-13T03:27:27.436Z,100089.38
2023-01-13T03:28:02.791Z,100094.25
2023-01-13T03:28:41.357Z,100101.97
2023-01-13T03:29:45.795Z,100095.25
2023-01-13T03:30:28.824Z,100084.03
2023-01-13T03:31:05.416Z,100093.66
2023-01-13T03:31:44.459Z,100086.72
2023-01-13T03:32:40.801Z,100082.03
2023-01-13T03:33:22.623Z,100082.84
2023-01-13T03:34:13.923Z,100078.94
2023-01-13T03:34:48.810Z,100080.19
2023-01-13T03:35:30.694Z,100091.16
2023-01-13T03:36:04.515Z,100089.13
2023-01-13T03:36:37.744Z,100089.13
2023-01-13T03:37:09.988Z,100090.56
2023-01-13T03:37:45.524Z,100091.59
2023-01-13T03:38:24.419Z,100093.97
2023-01-13T03:39:03.068Z,100095.59
2023-01-13T03:39:36.756Z,100097.81
2023-01-13T03:40:15.562Z,100101.94
2023-01-13T03:40:55.916Z,100099.28
2023-01-13T03:42:04.733Z,100093.97
2023-01-13T03:42:38.165Z,100104.56
2023-01-13T03:43:32.160Z,100088.50
2023-01-13T03:44:22.198Z,100092.38
2023-01-13T03:45:25.873Z,100089.44
2023-01-13T03:46:00.396Z,100093.13
2023-01-13T03:47:09.179Z,100088.63
2023-01-13T03:47:46.271Z,100084.59
2023-01-13T03:48:19.319Z,100087.63
2023-01-13T03:48:55.721Z,100095.19
2023-01-13T03:49:32.449Z,100084.38
2023-01-13T03:50:10.235Z,100079.06
2023-01-13T03:50:48.386Z,100083.38
2023-01-13T03:51:23.063Z,100089.66
2023-01-13T03:52:03.620Z,100082.75
2023-01-13T03:52:38.042Z,100080.03
2023-01-13T03:53:14.930Z,100086.41
2023-01-13T03:53:50.868Z,100082.19
2023-01-13T03:54:26.064Z,100077.66
2023-01-13T03:55:02.541Z,100089.06
2023-01-13T03:55:42.177Z,100083.97
2023-01-13T03:56:18.196Z,100084.38
2023-01-13T03:57:00.541Z,100086.22
2023-01-13T03:57:36.548Z,100086.22
2023-01-13T03:58:35.579Z,100090.91
2023-01-13T03:59:08.818Z,100089.44
2023-01-13T03:59:43.194Z,100094.41
2023-01-13T04:00:15.680Z,100084.59
2023-01-13T04:00:53.360Z,100084.59
2023-01-13T04:01:29.376Z,100080.53
2023-01-13T04:02:07.979Z,100093.97
2023-01-13T04:02:52.523Z,100080.09
2023-01-13T04:03:32.990Z,100086.63
2023-01-13T04:04:07.850Z,100090.31
2023-01-13T04:04:44.027Z,100080.09
2023-01-13T04:05:17.506Z,100083.59
2023-01-13T04:05:52.914Z,100081.38
2023-01-13T04:06:44.455Z,100081.94
2023-01-13T04:07:20.805Z,100083.97
2023-01-13T04:08:06.656Z,100081.75
2023-01-13T04:08:44.476Z,100091.34
2023-01-13T04:09:30.653Z,100086.84
2023-01-13T04:10:06.636Z,100079.72
2023-01-13T04:10:43.950Z,100085.81
2023-01-13T04:11:20.037Z,100086.63
2023-01-13T04:12:49.777Z,100087.88
2023-01-13T04:13:23.632Z,100098.09
2023-01-13T04:13:56.027Z,100089.94
2023-01-13T04:14:29.027Z,100093.81
2023-01-13T04:15:00.922Z,100087.50
2023-01-13T04:15:38.451Z,100092.38
2023-01-13T04:16:11.314Z,100086.63
2023-01-13T04:16:43.527Z,100088.63
2023-01-13T04:17:16.247Z,100093.94
2023-01-13T04:17:47.813Z,100086.41
2023-01-13T04:18:25.211Z,100087.22
2023-01-13T04:18:56.742Z,100086.59
2023-01-13T04:19:28.414Z,100088.84
2023-01-13T04:19:59.963Z,100089.63
2023-01-13T04:20:31.513Z,100076.38
2023-01-13T04:21:04.496Z,100083.13
2023-01-13T04:21:36.102Z,100086.22
2023-01-13T04:22:07.685Z,100083.78
2023-01-13T04:22:39.412Z,100082.16
2023-01-13T04:23:12.153Z,100083.38
2023-01-13T04:23:43.902Z,100083.38
2023-01-13T04:24:15.520Z,100076.63
2023-01-13T04:24:47.100Z,100073.59
2023-01-13T04:25:18.695Z,100080.53
2023-01-13T04:25:51.542Z,100087.28
2023-01-13T04:26:24.358Z,100076.91
2023-01-13T04:26:56.569Z,100079.53
2023-01-13T04:27:28.118Z,100069.53
2023-01-13T04:27:59.663Z,100076.91
2023-01-13T04:28:31.277Z,100074.84
2023-01-13T04:29:03.075Z,100065.50
2023-01-13T04:29:34.806Z,100038.34
2023-01-13T04:30:07.065Z,100058.94
2023-01-13T04:30:39.061Z,100071.16
2023-01-13T04:31:10.643Z,100069.97
2023-01-13T04:31:42.964Z,100071.81
2023-01-13T04:32:14.524Z,100067.53
2023-01-13T04:32:46.035Z,100073.88
2023-01-13T04:33:18.714Z,100073.06
2023-01-13T04:33:50.282Z,100069.97
2023-01-13T04:34:22.036Z,100073.66
2023-01-13T04:34:54.218Z,100071.22
2023-01-13T04:35:26.147Z,100070.84
2023-01-13T04:35:57.724Z,100067.56
2023-01-13T04:36:29.345Z,100079.81
2023-01-13T04:37:01.230Z,100072.47
2023-01-13T04:37:33.425Z,100069.81
2023-01-13T04:38:08.281Z,100074.88
2023-01-13T04:38:40.006Z,100071.66
2023-01-13T04:39:11.700Z,100074.69
2023-01-13T04:39:43.276Z,100074.69
2023-01-13T04:40:14.982Z,100081.81
2023-01-13T04:40:46.994Z,100063.06
2023-01-13T04:41:18.614Z,100071.59
2023-01-13T04:41:58.967Z,100069.97
2023-01-13T04:42:30.674Z,100064.69
2023-01-13T04:43:03.228Z,100069.59
2023-01-13T04:43:34.749Z,100070.56
2023-01-13T04:44:06.353Z,100065.09
2023-01-13T04:44:38.049Z,100068.34
2023-01-13T04:45:11.820Z,100071.00
2023-01-13T04:45:43.848Z,100066.31
2023-01-13T04:46:15.418Z,100074.50
2023-01-13T04:46:47.184Z,100075.50
2023-01-13T04:47:18.868Z,100077.53
2023-01-13T04:47:50.436Z,100073.66
2023-01-13T04:48:22.080Z,100068.94
2023-01-13T04:48:53.619Z,100074.03
2023-01-13T04:49:25.293Z,100066.31
2023-01-13T04:49:59.056Z,100067.94
2023-01-13T04:50:30.736Z,100065.50
2023-01-13T04:51:02.298Z,100068.78
2023-01-13T04:51:34.173Z,100072.03
2023-01-13T04:52:07.280Z,100070.19
2023-01-13T04:52:39.146Z,100073.28
2023-01-13T04:53:11.035Z,100067.16
2023-01-13T04:53:42.668Z,100069.75
2023-01-13T04:54:14.749Z,100072.09
2023-01-13T04:54:46.770Z,100073.75
2023-01-13T04:55:19.311Z,100073.38
2023-01-13T04:55:52.123Z,100071.56
2023-01-13T04:56:23.753Z,100076.25
2023-01-13T04:56:55.355Z,100092.16
2023-01-13T04:57:27.028Z,100076.25
2023-01-13T04:58:06.107Z,100078.66
2023-01-13T04:58:37.694Z,100080.09
2023-01-13T04:59:10.999Z,100085.41
2023-01-13T04:59:42.608Z,100081.56
2023-01-13T05:00:16.607Z,100080.75
2023-01-13T05:00:50.665Z,100083.59
2023-01-13T05:01:22.571Z,100081.13
2023-01-13T05:01:54.454Z,100087.44
2023-01-13T05:02:26.120Z,100081.56
2023-01-13T05:02:57.878Z,100081.56
2023-01-13T05:03:29.433Z,100081.13
2023-01-13T05:04:00.985Z,100077.66
2023-01-13T05:04:32.592Z,100078.31
2023-01-13T05:05:04.734Z,100086.03
2023-01-13T05:05:36.492Z,100069.56
2023-01-13T05:06:08.108Z,100072.63
2023-01-13T05:06:40.296Z,100084.03
2023-01-13T05:07:11.960Z,100088.09
2023-01-13T05:07:43.563Z,100084.66
2023-01-13T05:08:15.136Z,100081.19
2023-01-13T05:08:46.701Z,100071.03
2023-01-13T05:09:18.323Z,100078.56
2023-01-13T05:09:50.022Z,100078.78
2023-01-13T05:10:23.856Z,100080.00
2023-01-13T05:10:55.738Z,100071.25
2023-01-13T05:11:45.884Z,100077.16
2023-01-13T05:12:36.009Z,100068.19
2023-01-13T05:13:27.825Z,100071.84
2023-01-13T05:14:17.988Z,100066.94
2023-01-13T05:15:08.177Z,100069.41
2023-01-13T05:15:59.470Z,100060.84
2023-01-13T05:16:49.411Z,100069.00
2023-01-13T05:17:23.263Z,100067.16
2023-01-13T05:17:54.942Z,100073.47
2023-01-13T05:18:28.096Z,100067.53
2023-01-13T05:18:59.758Z,100068.97
2023-01-13T05:19:33.651Z,100072.59
2023-01-13T05:20:06.344Z,100067.72
2023-01-13T05:20:38.237Z,100077.50
2023-01-13T05:21:29.749Z,100075.66
2023-01-13T05:22:20.344Z,100075.88
2023-01-13T05:23:10.630Z,100076.69
2023-01-13T05:24:00.659Z,100083.84
2023-01-13T05:24:53.732Z,100078.53
2023-01-13T05:25:26.072Z,100078.78
2023-01-13T05:25:57.675Z,100064.09
2023-01-13T05:26:29.295Z,100075.09
2023-01-13T05:27:00.843Z,100082.81
2023-01-13T05:27:33.588Z,100060.03
2023-01-13T05:28:05.453Z,100084.84
2023-01-13T05:28:37.033Z,100066.94
2023-01-13T05:29:08.578Z,100073.66
2023-01-13T05:29:40.325Z,100071.00
2023-01-13T05:30:12.147Z,100072.63
2023-01-13T05:30:46.275Z,100070.19
2023-01-13T05:31:17.984Z,100065.94
2023-01-13T05:31:49.726Z,100072.63
2023-01-13T05:32:21.818Z,100062.84
2023-01-13T05:32:53.516Z,100072.41
2023-01-13T05:33:25.100Z,100073.88
2023-01-13T05:33:57.289Z,100066.31
2023-01-13T05:34:28.813Z,100065.13
2023-01-13T05:35:00.678Z,100069.56
2023-01-13T05:35:32.588Z,100069.81
2023-01-13T05:36:04.414Z,100061.69
2023-01-13T05:36:35.929Z,100075.13
2023-01-13T05:37:08.262Z,100072.28
2023-01-13T05:37:39.894Z,100062.28
2023-01-13T05:38:12.409Z,100072.88
2023-01-13T05:38:44.022Z,100067.78
2023-01-13T05:39:15.582Z,100067.75
2023-01-13T05:40:05.680Z,100072.63
2023-01-13T05:40:59.702Z,100073.09
2023-01-13T05:41:49.813Z,100073.94
2023-01-13T05:42:40.226Z,100075.94
2023-01-13T05:43:22.028Z,100063.31
2023-01-13T05:43:53.937Z,100086.53
2023-01-13T05:44:25.563Z,100077.38
2023-01-13T05:44:57.095Z,100085.13
2023-01-13T05:45:30.513Z,100084.50
2023-01-13T05:46:08.018Z,100076.38
2023-01-13T05:46:40.676Z,100085.69
2023-01-13T05:47:13.627Z,100079.19
2023-01-13T05:47:45.321Z,100081.41
2023-01-13T05:48:18.424Z,100092.59
2023-01-13T05:48:50.772Z,100087.72
2023-01-13T05:49:22.380Z,100081.59
2023-01-13T05:49:53.958Z,100084.25
2023-01-13T05:50:28.480Z,100076.09
2023-01-13T05:51:00.927Z,100084.25
2023-01-13T05:51:32.461Z,100071.41
2023-01-13T05:52:04.233Z,100080.16
2023-01-13T05:52:35.858Z,100093.38
2023-01-13T05:53:07.541Z,100081.59
2023-01-13T05:53:40.904Z,100085.88
2023-01-13T05:54:12.589Z,100081.97
2023-01-13T05:54:44.118Z,100083.22
2023-01-13T05:55:15.948Z,100086.06
2023-01-13T05:55:49.504Z,100085.66
2023-01-13T05:56:21.129Z,100087.69
2023-01-13T05:56:52.658Z,100083.22
2023-01-13T05:57:24.384Z,100082.00
2023-01-13T05:57:55.938Z,100079.53
2023-01-13T05:58:28.016Z,100077.72
2023-01-13T05:58:59.651Z,100076.47
2023-01-13T05:59:31.181Z,100087.28
2023-01-13T06:00:04.367Z,100080.31
2023-01-13T06:00:43.564Z,100080.09
2023-01-13T06:01:15.340Z,100074.63
2023-01-13T06:01:46.934Z,100081.94
2023-01-13T06:02:18.664Z,100086.84
2023-01-13T06:02:50.333Z,100070.13
2023-01-13T06:03:22.014Z,100075.41
2023-01-13T06:03:53.564Z,100077.03
2023-01-13T06:04:25.167Z,100071.31
2023-01-13T06:04:56.793Z,100067.22
2023-01-13T06:05:29.138Z,100078.22
2023-01-13T06:06:02.218Z,100073.38
2023-01-13T06:06:33.800Z,100081.09
2023-01-13T06:07:05.482Z,100074.13
2023-01-13T06:07:37.048Z,100070.47
2023-01-13T06:08:09.087Z,100069.88
2023-01-13T06:08:40.678Z,100075.78
2023-01-13T06:09:12.316Z,100078.66
2023-01-13T06:09:43.961Z,100076.19
2023-01-13T06:10:15.770Z,100078.22
2023-01-13T06:10:47.297Z,100066.41
2023-01-13T06:11:18.852Z,100069.25
2023-01-13T06:11:50.648Z,100076.59
2023-01-13T06:12:22.188Z,100076.59
2023-01-13T06:12:53.792Z,100069.69
2023-01-13T06:13:25.795Z,100070.94
2023-01-13T06:13:57.343Z,100081.50
2023-01-13T06:14:39.956Z,100072.97
2023-01-13T06:15:11.583Z,100077.28
2023-01-13T06:15:43.263Z,100080.31
2023-01-13T06:16:14.987Z,100086.84
2023-01-13T06:16:46.713Z,100086.81
2023-01-13T06:17:18.327Z,100071.75
2023-01-13T06:17:49.910Z,100083.56
2023-01-13T06:18:21.461Z,100074.59
2023-01-13T06:18:54.556Z,100077.84
2023-01-13T06:19:26.119Z,100072.50
2023-01-13T06:19:57.658Z,100074.13
2023-01-13T06:20:29.486Z,100077.38
2023-01-13T06:21:01.150Z,100080.84
2023-01-13T06:21:33.357Z,100084.34
2023-01-13T06:22:15.240Z,100082.69
2023-01-13T06:22:49.129Z,100083.31
2023-01-13T06:23:21.048Z,100082.06
2023-01-13T06:23:52.699Z,100083.53
2023-01-13T06:24:24.291Z,100082.50
2023-01-13T06:24:55.913Z,100081.47
2023-01-13T06:25:56.913Z,100083.34
2023-01-13T06:26:30.710Z,100084.34
2023-01-13T06:27:02.485Z,100072.72
2023-01-13T06:27:34.423Z,100077.03
2023-01-13T06:28:06.074Z,100088.66
2023-01-13T06:28:37.716Z,100092.09
2023-01-13T06:29:10.162Z,100088.44
2023-01-13T06:29:41.856Z,100083.53
2023-01-13T06:30:13.592Z,100090.06
2023-01-13T06:30:57.443Z,100088.44
2023-01-13T06:31:29.094Z,100094.53
2023-01-13T06:32:07.026Z,100083.75
2023-01-13T06:32:43.585Z,100093.72
2023-01-13T06:33:18.245Z,100090.88
2023-01-13T06:33:53.382Z,100085.38
2023-01-13T06:34:25.203Z,100095.75
2023-01-13T06:35:00.380Z,100094.38
2023-01-13T06:35:35.853Z,100089.66
2023-01-13T06:36:11.766Z,100095.16
2023-01-13T06:36:48.982Z,100084.75
2023-01-13T06:37:22.058Z,100093.34
2023-01-13T06:37:55.089Z,100094.38
2023-01-13T06:38:27.893Z,100103.13
2023-01-13T06:39:01.434Z,100098.25
2023-01-13T06:39:35.891Z,100100.31
2023-01-13T06:40:08.366Z,100101.94
2023-01-13T06:40:44.276Z,100102.34
2023-01-13T06:41:16.245Z,100109.72
2023-01-13T06:42:07.015Z,100114.19
2023-01-13T06:42:57.792Z,100100.34
2023-01-13T06:43:29.430Z,100110.16
2023-01-13T06:44:00.970Z,100108.13
2023-01-13T06:44:32.791Z,100116.06
2023-01-13T06:45:04.607Z,100124.00
2023-01-13T06:45:36.272Z,100119.69
2023-01-13T06:46:08.933Z,100110.56
2023-01-13T06:46:40.581Z,100116.25
2023-01-13T06:47:14.177Z,100117.28
2023-01-13T06:47:45.741Z,100107.50
2023-01-13T06:48:18.334Z,100116.66
2023-01-13T06:48:49.997Z,100121.13
2023-01-13T06:49:21.911Z,100117.47
2023-01-13T06:49:53.986Z,100125.81